Keystone Heights, Florida
Current Conditions -  °F | °C
As of 8:35 PM on Tuesday 27 Jan 2015 (Local Time) from K42J Reporting Station
Clear Clear  
Wind Chill: 50°   Ceiling: Unl
Heat Index: 50°   Visibility: 10mi
Dew Point: 36°   Wind: 3mph
Humidity: 58%   Direction: 350°N
Pressure: 30.02"   Gusts: NA
Location:  29.79°N, 82.03°W
Report Text: K42J 280135Z AUTO 35003KT 10SM CLR 10/02 A3002 RMK AO1 TSNO
Loading
Personal Weather Stations






























Interactive Weather Map New forecast layout! Learn more

10-Day Weather Forecast

Advertisements
Track Severe Weather on mobile